createdAt,value
2023-03-31T00:00:35.368Z,94275.00
2023-03-31T00:01:35.461Z,94271.00
2023-03-31T00:02:35.702Z,94273.00
2023-03-31T00:03:35.880Z,94269.00
2023-03-31T00:04:35.946Z,94267.00
2023-03-31T00:05:36.027Z,94265.00
2023-03-31T00:06:36.220Z,94265.00
2023-03-31T00:07:36.353Z,94265.00
2023-03-31T00:08:36.501Z,94265.00
2023-03-31T00:09:36.579Z,94263.00
2023-03-31T00:10:36.648Z,94263.00
2023-03-31T00:11:36.705Z,94261.00
2023-03-31T00:12:36.720Z,94261.00
2023-03-31T00:13:36.965Z,94261.00
2023-03-31T00:14:36.838Z,94255.00
2023-03-31T00:15:36.882Z,94255.00
2023-03-31T00:16:37.075Z,94255.00
2023-03-31T00:17:37.031Z,94251.00
2023-03-31T00:18:37.043Z,94249.00
2023-03-31T00:19:37.114Z,94251.00
2023-03-31T00:20:37.153Z,94253.00
2023-03-31T00:21:37.208Z,94251.00
2023-03-31T00:22:37.259Z,94251.00
2023-03-31T00:23:37.301Z,94249.00
2023-03-31T00:24:37.363Z,94245.00
2023-03-31T00:25:37.380Z,94243.00
2023-03-31T00:26:37.442Z,94239.00
2023-03-31T00:27:37.496Z,94238.00
2023-03-31T00:28:37.533Z,94236.00
2023-03-31T00:29:37.601Z,94238.00
2023-03-31T00:30:37.641Z,94238.00
2023-03-31T00:31:37.726Z,94238.00
2023-03-31T00:32:37.760Z,94236.00
2023-03-31T00:33:37.805Z,94236.00
2023-03-31T00:34:37.855Z,94234.00
2023-03-31T00:35:37.937Z,94236.00
2023-03-31T00:36:37.953Z,94232.00
2023-03-31T00:37:37.995Z,94234.00
2023-03-31T00:38:38.074Z,94232.00
2023-03-31T00:39:38.095Z,94232.00
2023-03-31T00:40:38.142Z,94230.00
2023-03-31T00:41:38.185Z,94230.00
2023-03-31T00:42:38.308Z,94230.00
2023-03-31T00:43:38.288Z,94230.00
2023-03-31T00:44:38.346Z,94230.00
2023-03-31T00:45:38.430Z,94228.00
2023-03-31T00:46:38.415Z,94224.00
2023-03-31T00:47:38.481Z,94218.00
2023-03-31T00:48:38.531Z,94212.00
2023-03-31T00:49:38.550Z,94208.00
2023-03-31T00:50:38.594Z,94210.00
2023-03-31T00:51:38.635Z,94210.00
2023-03-31T00:52:38.729Z,94210.00
2023-03-31T00:53:38.752Z,94206.00
2023-03-31T00:54:38.796Z,94204.00
2023-03-31T00:55:38.847Z,94204.00
2023-03-31T00:56:38.890Z,94194.00
2023-03-31T00:57:38.942Z,94189.00
2023-03-31T00:58:38.982Z,94189.00
2023-03-31T00:59:39.054Z,94189.00
2023-03-31T01:00:39.061Z,94189.00
2023-03-31T01:01:39.244Z,94191.00
2023-03-31T01:02:39.191Z,94191.00
2023-03-31T01:03:39.282Z,94191.00
2023-03-31T01:04:39.289Z,94191.00
2023-03-31T01:05:39.304Z,94189.00
2023-03-31T01:06:39.405Z,94185.00
2023-03-31T01:07:39.401Z,94181.00
2023-03-31T01:08:39.450Z,94181.00
2023-03-31T01:09:39.495Z,94179.00
2023-03-31T01:10:39.542Z,94177.00
2023-03-31T01:11:39.552Z,94175.00
2023-03-31T01:12:39.606Z,94173.00
2023-03-31T01:13:39.664Z,94169.00
2023-03-31T01:14:39.714Z,94167.00
2023-03-31T01:15:39.806Z,94169.00
2023-03-31T01:16:39.907Z,94169.00
2023-03-31T01:17:39.967Z,94167.00
2023-03-31T01:18:39.962Z,94163.00
2023-03-31T01:19:39.936Z,94163.00
2023-03-31T01:20:39.996Z,94163.00
2023-03-31T01:21:40.032Z,94163.00
2023-03-31T01:22:40.090Z,94163.00
2023-03-31T01:23:40.130Z,94159.00
2023-03-31T01:24:40.198Z,94161.00
2023-03-31T01:25:40.240Z,94159.00
2023-03-31T01:26:40.272Z,94161.00
2023-03-31T01:27:40.326Z,94157.00
2023-03-31T01:28:40.368Z,94155.00
2023-03-31T01:29:40.415Z,94155.00
2023-03-31T01:30:40.452Z,94155.00
2023-03-31T01:31:40.582Z,94155.00
2023-03-31T01:32:40.622Z,94157.00
2023-03-31T01:33:40.615Z,94155.00
2023-03-31T01:34:40.612Z,94146.00
2023-03-31T01:35:40.719Z,94146.00
2023-03-31T01:36:40.690Z,94138.00
2023-03-31T01:37:40.722Z,94134.00
2023-03-31T01:38:40.791Z,94134.00
2023-03-31T01:39:40.838Z,94132.00
2023-03-31T01:40:40.911Z,94132.00
2023-03-31T01:41:40.975Z,94132.00
2023-03-31T01:42:41.003Z,94132.00
2023-03-31T01:43:41.063Z,94134.00
2023-03-31T01:44:41.125Z,94130.00
2023-03-31T01:45:41.152Z,94132.00
2023-03-31T01:46:41.230Z,94132.00
2023-03-31T01:47:41.258Z,94136.00
2023-03-31T01:48:41.325Z,94134.00
2023-03-31T01:49:41.376Z,94132.00
2023-03-31T01:50:41.429Z,94130.00
2023-03-31T01:51:41.673Z,94130.00
2023-03-31T01:52:41.562Z,94130.00
2023-03-31T01:53:41.608Z,94132.00
2023-03-31T01:54:41.655Z,94134.00
2023-03-31T01:55:41.697Z,94136.00
2023-03-31T01:56:41.796Z,94138.00
2023-03-31T01:57:41.789Z,94138.00
2023-03-31T01:58:41.843Z,94140.00
2023-03-31T01:59:41.882Z,94140.00
2023-03-31T02:00:41.901Z,94138.00
2023-03-31T02:01:41.974Z,94134.00
2023-03-31T02:02:42.062Z,94134.00
2023-03-31T02:03:42.141Z,94130.00
2023-03-31T02:04:42.107Z,94128.00
2023-03-31T02:05:42.152Z,94126.00
2023-03-31T02:06:42.234Z,94122.00
2023-03-31T02:07:42.323Z,94118.00
2023-03-31T02:08:42.320Z,94114.00
2023-03-31T02:09:42.360Z,94110.00
2023-03-31T02:10:42.424Z,94108.00
2023-03-31T02:11:42.446Z,94108.00
2023-03-31T02:12:42.527Z,94107.00
2023-03-31T02:13:42.583Z,94107.00
2023-03-31T02:14:42.590Z,94107.00
2023-03-31T02:15:42.648Z,94107.00
2023-03-31T02:16:42.721Z,94107.00
2023-03-31T02:17:42.770Z,94107.00
2023-03-31T02:18:42.787Z,94107.00
2023-03-31T02:19:42.846Z,94103.00
2023-03-31T02:20:42.934Z,94097.00
2023-03-31T02:21:42.987Z,94095.00
2023-03-31T02:22:43.034Z,94091.00
2023-03-31T02:23:43.087Z,94089.00
2023-03-31T02:24:43.076Z,94089.00
2023-03-31T02:25:43.144Z,94083.00
2023-03-31T02:26:43.310Z,94079.00
2023-03-31T02:27:43.361Z,94077.00
2023-03-31T02:28:43.517Z,94077.00
2023-03-31T02:29:43.476Z,94075.00
2023-03-31T02:30:43.540Z,94079.00
2023-03-31T02:31:43.667Z,94075.00
2023-03-31T02:32:43.676Z,94075.00
2023-03-31T02:33:43.735Z,94073.00
2023-03-31T02:34:43.755Z,94077.00
2023-03-31T02:35:43.850Z,94077.00
2023-03-31T02:36:43.810Z,94079.00
2023-03-31T02:37:43.879Z,94081.00
2023-03-31T02:38:43.960Z,94079.00
2023-03-31T02:39:44.021Z,94081.00
2023-03-31T02:40:44.041Z,94083.00
2023-03-31T02:41:44.102Z,94087.00
2023-03-31T02:42:44.126Z,94087.00
2023-03-31T02:43:44.121Z,94087.00
2023-03-31T02:44:44.130Z,94085.00
2023-03-31T02:45:44.223Z,94083.00
2023-03-31T02:46:44.250Z,94079.00
2023-03-31T02:47:44.334Z,94077.00
2023-03-31T02:48:44.361Z,94075.00
2023-03-31T02:49:44.394Z,94073.00
2023-03-31T02:50:44.474Z,94067.00
2023-03-31T02:51:44.533Z,94061.00
2023-03-31T02:52:44.564Z,94058.00
2023-03-31T02:53:44.644Z,94056.00
2023-03-31T02:54:44.700Z,94054.00
2023-03-31T02:55:44.763Z,94050.00
2023-03-31T02:56:44.844Z,94048.00
2023-03-31T02:57:44.869Z,94048.00
2023-03-31T02:58:44.908Z,94046.00
2023-03-31T02:59:44.958Z,94042.00
2023-03-31T03:00:45.024Z,94040.00
2023-03-31T03:01:45.126Z,94038.00
2023-03-31T03:02:45.172Z,94040.00
2023-03-31T03:03:45.194Z,94042.00
2023-03-31T03:04:45.247Z,94044.00
2023-03-31T03:05:45.280Z,94042.00
2023-03-31T03:06:45.367Z,94042.00
2023-03-31T03:07:45.398Z,94044.00
2023-03-31T03:08:45.482Z,94042.00
2023-03-31T03:09:45.528Z,94044.00
2023-03-31T03:10:45.609Z,94044.00
2023-03-31T03:11:45.675Z,94048.00
2023-03-31T03:12:45.724Z,94046.00
2023-03-31T03:13:45.779Z,94046.00
2023-03-31T03:14:45.853Z,94044.00
2023-03-31T03:15:45.872Z,94044.00
2023-03-31T03:16:45.973Z,94046.00
2023-03-31T03:17:46.078Z,94046.00
2023-03-31T03:18:46.022Z,94040.00
2023-03-31T03:19:46.036Z,94036.00
2023-03-31T03:20:46.090Z,94036.00
2023-03-31T03:21:46.148Z,94030.00
2023-03-31T03:22:46.217Z,94030.00
2023-03-31T03:23:46.271Z,94026.00
2023-03-31T03:24:46.306Z,94022.00
2023-03-31T03:25:46.297Z,94016.00
2023-03-31T03:26:46.348Z,94009.00
2023-03-31T03:27:46.421Z,94001.00
2023-03-31T03:28:46.462Z,93999.00
2023-03-31T03:29:46.537Z,94001.00
2023-03-31T03:30:46.587Z,94001.00
2023-03-31T03:31:46.646Z,93999.00
2023-03-31T03:32:46.772Z,93999.00
2023-03-31T03:33:46.776Z,93999.00
2023-03-31T03:34:46.811Z,93997.00
2023-03-31T03:35:46.947Z,93995.00
2023-03-31T03:36:46.931Z,93995.00
2023-03-31T03:37:46.992Z,93993.00
2023-03-31T03:38:47.085Z,93991.00
2023-03-31T03:39:47.112Z,93985.00
2023-03-31T03:40:48.893Z,93981.00
2023-03-31T03:41:47.149Z,93977.00
2023-03-31T03:42:47.137Z,93973.00
2023-03-31T03:43:47.141Z,93971.00
2023-03-31T03:44:47.131Z,93969.00
2023-03-31T03:45:47.118Z,93971.00
2023-03-31T03:46:47.140Z,93971.00
2023-03-31T03:47:47.132Z,93975.00
2023-03-31T03:48:47.118Z,93977.00
2023-03-31T03:49:47.105Z,93971.00
2023-03-31T03:50:47.073Z,93971.00
2023-03-31T03:51:47.108Z,93975.00
2023-03-31T03:52:47.051Z,93975.00
2023-03-31T03:53:47.066Z,93971.00
2023-03-31T03:54:47.037Z,93969.00
2023-03-31T03:55:47.026Z,93969.00
2023-03-31T03:56:47.056Z,93964.00
2023-03-31T03:57:47.024Z,93962.00
2023-03-31T03:58:47.006Z,93958.00
2023-03-31T03:59:47.013Z,93956.00
2023-03-31T04:00:47.001Z,93958.00
2023-03-31T04:01:47.008Z,93964.00
2023-03-31T04:02:47.074Z,93967.00
2023-03-31T04:03:46.985Z,93969.00
2023-03-31T04:04:47.110Z,93971.00
2023-03-31T04:05:46.965Z,93971.00
2023-03-31T04:06:46.967Z,93971.00
2023-03-31T04:07:46.964Z,93969.00
2023-03-31T04:08:46.959Z,93962.00
2023-03-31T04:09:46.925Z,93958.00
2023-03-31T04:10:46.935Z,93956.00
2023-03-31T04:11:46.924Z,93954.00
2023-03-31T04:12:46.935Z,93952.00
2023-03-31T04:13:46.915Z,93952.00
2023-03-31T04:14:46.885Z,93952.00
2023-03-31T04:15:46.956Z,93954.00
2023-03-31T04:16:47.051Z,93958.00
2023-03-31T04:17:46.878Z,93954.00
2023-03-31T04:18:46.855Z,93952.00
2023-03-31T04:19:46.858Z,93950.00
2023-03-31T04:20:46.887Z,93952.00
2023-03-31T04:21:46.966Z,93950.00
2023-03-31T04:22:47.021Z,93950.00
2023-03-31T04:23:47.152Z,93950.00
2023-03-31T04:24:47.128Z,93950.00
2023-03-31T04:25:47.188Z,93948.00
2023-03-31T04:26:47.260Z,93944.00
2023-03-31T04:27:47.325Z,93942.00
2023-03-31T04:28:47.383Z,93938.00
2023-03-31T04:29:47.452Z,93932.00
2023-03-31T04:30:47.510Z,93930.00
2023-03-31T04:31:47.588Z,93928.00
2023-03-31T04:32:47.620Z,93928.00
2023-03-31T04:33:47.619Z,93932.00
2023-03-31T04:34:47.666Z,93930.00
2023-03-31T04:35:47.749Z,93930.00
2023-03-31T04:36:48.221Z,93928.00
2023-03-31T04:37:47.851Z,93924.00
2023-03-31T04:38:47.893Z,93924.00
2023-03-31T04:39:47.966Z,93924.00
2023-03-31T04:40:48.029Z,93922.00
2023-03-31T04:41:48.077Z,93922.00
2023-03-31T04:42:48.136Z,93917.00
2023-03-31T04:43:48.183Z,93917.00
2023-03-31T04:44:48.212Z,93913.00
2023-03-31T04:45:48.296Z,93911.00
2023-03-31T04:46:48.335Z,93911.00
2023-03-31T04:47:48.464Z,93907.00
2023-03-31T04:48:48.483Z,93909.00
2023-03-31T04:49:48.466Z,93907.00
2023-03-31T04:50:48.521Z,93905.00
2023-03-31T04:51:48.635Z,93899.00
2023-03-31T04:52:48.645Z,93882.00
2023-03-31T04:53:48.669Z,93878.00
2023-03-31T04:54:48.744Z,93876.00
2023-03-31T04:55:48.825Z,93872.00
2023-03-31T04:56:48.894Z,93872.00
2023-03-31T04:57:48.949Z,93872.00
2023-03-31T04:58:49.084Z,93876.00
2023-03-31T04:59:49.123Z,93872.00
2023-03-31T05:00:49.159Z,93876.00
2023-03-31T05:01:49.212Z,93878.00
2023-03-31T05:02:49.348Z,93878.00
2023-03-31T05:03:49.301Z,93876.00
2023-03-31T05:04:49.352Z,93876.00
2023-03-31T05:05:49.414Z,93872.00
2023-03-31T05:06:49.420Z,93874.00
2023-03-31T05:07:49.493Z,93862.00
2023-03-31T05:08:49.565Z,93862.00
2023-03-31T05:09:49.602Z,93858.00
2023-03-31T05:10:49.705Z,93856.00
2023-03-31T05:11:49.739Z,93854.00
2023-03-31T05:12:49.819Z,93856.00
2023-03-31T05:13:49.829Z,93856.00
2023-03-31T05:14:49.872Z,93858.00
2023-03-31T05:15:49.937Z,93860.00
2023-03-31T05:16:50.015Z,93856.00
2023-03-31T05:17:49.974Z,93850.00
2023-03-31T05:18:50.046Z,93846.00
2023-03-31T05:19:50.046Z,93840.00
2023-03-31T05:20:50.113Z,93842.00
2023-03-31T05:21:50.175Z,93840.00
2023-03-31T05:22:50.236Z,93840.00
2023-03-31T05:23:50.293Z,93844.00
2023-03-31T05:24:50.295Z,93835.00
2023-03-31T05:25:50.341Z,93842.00
2023-03-31T05:26:50.415Z,93842.00
2023-03-31T05:27:50.462Z,93838.00
2023-03-31T05:28:50.501Z,93840.00
2023-03-31T05:29:50.511Z,93838.00
2023-03-31T05:30:50.532Z,93838.00
2023-03-31T05:31:50.592Z,93835.00
2023-03-31T05:32:50.594Z,93833.00
2023-03-31T05:33:50.649Z,93833.00
2023-03-31T05:34:52.169Z,93827.00
2023-03-31T05:35:50.784Z,93825.00
2023-03-31T05:36:50.786Z,93819.00
2023-03-31T05:37:50.807Z,93813.00
2023-03-31T05:38:50.841Z,93809.00
2023-03-31T05:39:50.917Z,93811.00
2023-03-31T05:40:50.963Z,93813.00
2023-03-31T05:41:51.020Z,93813.00
2023-03-31T05:42:51.076Z,93811.00
2023-03-31T05:43:51.030Z,93823.00
2023-03-31T05:44:51.085Z,93825.00
2023-03-31T05:45:51.184Z,93835.00
2023-03-31T05:46:51.260Z,93836.00
2023-03-31T05:47:51.239Z,93836.00
2023-03-31T05:48:51.180Z,93828.00
2023-03-31T05:49:51.239Z,93823.00
2023-03-31T05:50:51.239Z,93821.00
2023-03-31T05:51:51.260Z,93817.00
2023-03-31T05:52:51.606Z,93813.00
2023-03-31T05:53:51.335Z,93809.00
2023-03-31T05:54:51.358Z,93811.00
2023-03-31T05:55:51.414Z,93801.00
2023-03-31T05:56:51.468Z,93801.00
2023-03-31T05:57:51.452Z,93805.00
2023-03-31T05:58:51.495Z,93805.00
2023-03-31T05:59:51.550Z,93803.00
2023-03-31T06:00:51.640Z,93805.00
2023-03-31T06:01:51.762Z,93807.00
2023-03-31T06:02:51.833Z,93805.00
2023-03-31T06:03:51.924Z,93805.00
2023-03-31T06:04:51.808Z,93805.00
2023-03-31T06:05:51.862Z,93803.00
2023-03-31T06:06:51.883Z,93803.00
2023-03-31T06:07:51.952Z,93797.00
2023-03-31T06:08:52.001Z,93793.00
2023-03-31T06:09:52.603Z,93787.00
2023-03-31T06:10:52.087Z,93785.00
2023-03-31T06:11:52.191Z,93785.00
2023-03-31T06:12:52.640Z,93781.00
2023-03-31T06:13:52.611Z,93778.00
2023-03-31T06:14:52.312Z,93776.00
2023-03-31T06:15:52.350Z,93772.00
2023-03-31T06:16:52.370Z,93764.00
2023-03-31T06:17:52.441Z,93764.00
2023-03-31T06:18:52.419Z,93760.00
2023-03-31T06:19:52.447Z,93754.00
2023-03-31T06:20:52.466Z,93750.00
2023-03-31T06:21:52.555Z,93750.00
2023-03-31T06:22:52.624Z,93748.00
2023-03-31T06:23:52.668Z,93742.00
2023-03-31T06:24:52.658Z,93739.00
2023-03-31T06:25:52.721Z,93737.00
2023-03-31T06:26:53.938Z,93737.00
2023-03-31T06:27:52.870Z,93742.00
2023-03-31T06:28:52.934Z,93746.00
2023-03-31T06:29:52.994Z,93748.00
2023-03-31T06:30:53.021Z,93750.00
2023-03-31T06:31:53.114Z,93750.00
2023-03-31T06:32:53.197Z,93744.00
2023-03-31T06:33:53.648Z,93748.00
2023-03-31T06:34:53.188Z,93750.00
2023-03-31T06:35:53.217Z,93752.00
2023-03-31T06:36:53.254Z,93756.00
2023-03-31T06:37:53.315Z,93752.00
2023-03-31T06:38:53.341Z,93754.00
2023-03-31T06:39:53.433Z,93756.00
2023-03-31T06:40:53.507Z,93762.00
2023-03-31T06:41:53.576Z,93766.00
2023-03-31T06:42:53.605Z,93768.00
2023-03-31T06:43:53.659Z,93770.00
2023-03-31T06:44:53.695Z,93774.00
2023-03-31T06:45:54.053Z,93781.00
2023-03-31T06:46:53.807Z,93783.00
2023-03-31T06:47:53.902Z,93783.00
2023-03-31T06:48:54.104Z,93783.00
2023-03-31T06:49:53.958Z,93785.00
2023-03-31T06:50:54.043Z,93783.00
2023-03-31T06:51:54.061Z,93787.00
2023-03-31T06:52:54.102Z,93785.00
2023-03-31T06:53:54.624Z,93789.00
2023-03-31T06:54:54.183Z,93787.00
2023-03-31T06:55:54.186Z,93785.00
2023-03-31T06:56:54.393Z,93776.00
2023-03-31T06:57:54.221Z,93770.00
2023-03-31T06:58:54.249Z,93760.00
2023-03-31T06:59:54.239Z,93752.00
2023-03-31T07:00:54.321Z,93741.00
2023-03-31T07:01:54.355Z,93735.00
2023-03-31T07:02:54.398Z,93727.00
2023-03-31T07:03:54.731Z,93729.00
2023-03-31T07:04:54.277Z,93731.00
2023-03-31T07:05:54.281Z,93733.00
2023-03-31T07:06:54.264Z,93729.00
2023-03-31T07:07:54.309Z,93727.00
2023-03-31T07:08:54.663Z,93725.00
2023-03-31T07:09:56.285Z,93727.00
2023-03-31T07:10:54.503Z,93723.00
2023-03-31T07:11:56.543Z,93725.00
2023-03-31T07:12:54.609Z,93727.00
2023-03-31T07:13:54.654Z,93733.00
2023-03-31T07:14:54.707Z,93737.00
2023-03-31T07:15:54.787Z,93739.00
2023-03-31T07:16:54.798Z,93737.00
2023-03-31T07:17:54.863Z,93735.00
2023-03-31T07:18:54.919Z,93733.00
2023-03-31T07:19:54.902Z,93727.00
2023-03-31T07:20:54.986Z,93727.00
2023-03-31T07:21:54.994Z,93725.00
2023-03-31T07:22:55.021Z,93721.00
2023-03-31T07:23:55.092Z,93717.00
2023-03-31T07:24:55.122Z,93709.00
2023-03-31T07:25:55.151Z,93703.00
2023-03-31T07:26:55.187Z,93695.00
2023-03-31T07:27:55.276Z,93694.00
2023-03-31T07:28:55.297Z,93690.00
2023-03-31T07:29:55.624Z,93682.00
2023-03-31T07:30:55.433Z,93682.00
2023-03-31T07:31:55.641Z,93676.00
2023-03-31T07:32:55.636Z,93670.00
2023-03-31T07:33:55.617Z,93666.00
2023-03-31T07:34:55.614Z,93662.00
2023-03-31T07:36:10.015Z,93664.00
2023-03-31T07:36:56.682Z,93666.00
2023-03-31T07:37:55.650Z,93676.00
2023-03-31T07:38:56.150Z,93678.00
2023-03-31T07:39:55.618Z,93670.00
2023-03-31T07:41:07.787Z,93662.00
2023-03-31T07:41:56.665Z,93656.00
2023-03-31T07:42:55.738Z,93656.00
2023-03-31T07:43:55.763Z,93654.00
2023-03-31T07:44:55.794Z,93654.00
2023-03-31T07:45:55.863Z,93654.00
2023-03-31T07:46:55.889Z,93656.00
2023-03-31T07:47:55.886Z,93658.00
2023-03-31T07:48:55.871Z,93664.00
2023-03-31T07:49:55.892Z,93664.00
2023-03-31T07:50:55.916Z,93664.00
2023-03-31T07:51:55.909Z,93666.00
2023-03-31T07:52:55.972Z,93664.00
2023-03-31T07:53:55.894Z,93666.00
2023-03-31T07:54:55.954Z,93662.00
2023-03-31T07:55:55.914Z,93660.00
2023-03-31T07:56:56.001Z,93658.00
2023-03-31T07:57:55.922Z,93660.00
2023-03-31T07:58:57.688Z,93662.00
2023-03-31T07:59:56.012Z,93658.00
2023-03-31T08:00:56.044Z,93656.00
2023-03-31T08:01:56.178Z,93648.00
2023-03-31T08:02:56.163Z,93645.00
2023-03-31T08:03:56.373Z,93633.00
2023-03-31T08:04:56.279Z,93629.00
2023-03-31T08:05:56.289Z,93623.00
2023-03-31T08:06:56.379Z,93617.00
2023-03-31T08:07:56.382Z,93617.00
2023-03-31T08:08:56.636Z,93617.00
2023-03-31T08:09:56.453Z,93613.00
2023-03-31T08:10:56.469Z,93613.00
2023-03-31T08:11:56.461Z,93611.00
2023-03-31T08:12:56.514Z,93611.00
2023-03-31T08:13:56.534Z,93613.00
2023-03-31T08:14:56.534Z,93609.00
2023-03-31T08:15:56.553Z,93607.00
2023-03-31T08:16:56.540Z,93602.00
2023-03-31T08:17:56.651Z,93602.00
2023-03-31T08:18:56.621Z,93603.00
2023-03-31T08:19:56.660Z,93611.00
2023-03-31T08:20:56.695Z,93615.00
2023-03-31T08:21:57.187Z,93617.00
2023-03-31T08:22:56.693Z,93615.00
2023-03-31T08:23:56.772Z,93613.00
2023-03-31T08:24:56.792Z,93611.00
2023-03-31T08:25:56.827Z,93605.00
2023-03-31T08:26:57.139Z,93602.00
2023-03-31T08:27:57.640Z,93596.00
2023-03-31T08:28:57.008Z,93590.00
2023-03-31T08:29:57.036Z,93590.00
2023-03-31T08:30:57.128Z,93586.00
2023-03-31T08:31:57.268Z,93584.00
2023-03-31T08:32:57.256Z,93588.00
2023-03-31T08:33:57.250Z,93588.00
2023-03-31T08:34:57.397Z,93582.00
2023-03-31T08:35:57.429Z,93578.00
2023-03-31T08:36:57.641Z,93570.00
2023-03-31T08:37:57.516Z,93566.00
2023-03-31T08:38:57.574Z,93564.00
2023-03-31T08:39:58.184Z,93559.00
2023-03-31T08:40:57.722Z,93559.00
2023-03-31T08:41:57.703Z,93559.00
2023-03-31T08:42:57.746Z,93563.00
2023-03-31T08:43:57.791Z,93559.00
2023-03-31T08:44:57.847Z,93551.00
2023-03-31T08:45:57.940Z,93553.00
2023-03-31T08:46:57.965Z,93547.00
2023-03-31T08:47:58.076Z,93545.00
2023-03-31T08:48:58.002Z,93541.00
2023-03-31T08:49:58.003Z,93537.00
2023-03-31T08:50:58.033Z,93533.00
2023-03-31T08:51:58.684Z,93533.00
2023-03-31T08:52:58.119Z,93527.00
2023-03-31T08:53:58.113Z,93523.00
2023-03-31T08:54:58.185Z,93523.00
2023-03-31T08:55:58.250Z,93523.00
2023-03-31T08:56:58.372Z,93519.00
2023-03-31T08:57:58.326Z,93517.00
2023-03-31T08:58:58.388Z,93516.00
2023-03-31T08:59:58.668Z,93514.00
2023-03-31T09:00:58.460Z,93514.00
2023-03-31T09:01:58.534Z,93516.00
2023-03-31T09:02:58.585Z,93512.00
2023-03-31T09:03:58.696Z,93510.00
2023-03-31T09:04:58.596Z,93510.00
2023-03-31T09:06:01.006Z,93506.00
2023-03-31T09:06:58.795Z,93504.00
2023-03-31T09:07:59.155Z,93506.00
2023-03-31T09:08:58.879Z,93500.00
2023-03-31T09:09:59.152Z,93498.00
2023-03-31T09:10:58.918Z,93498.00
2023-03-31T09:11:58.985Z,93502.00
2023-03-31T09:12:59.228Z,93496.00
2023-03-31T09:13:58.964Z,93492.00
2023-03-31T09:14:59.012Z,93488.00
2023-03-31T09:15:59.053Z,93486.00
2023-03-31T09:16:59.171Z,93486.00
2023-03-31T09:17:59.220Z,93488.00
2023-03-31T09:18:59.224Z,93492.00
2023-03-31T09:19:59.289Z,93496.00
2023-03-31T09:20:59.314Z,93494.00
2023-03-31T09:21:59.354Z,93490.00
2023-03-31T09:22:59.433Z,93484.00
2023-03-31T09:23:59.469Z,93478.00
2023-03-31T09:24:59.529Z,93478.00
2023-03-31T09:25:59.635Z,93476.00
2023-03-31T09:26:59.657Z,93480.00
2023-03-31T09:27:59.676Z,93484.00
2023-03-31T09:28:59.708Z,93484.00
2023-03-31T09:29:59.773Z,93482.00
2023-03-31T09:30:59.816Z,93480.00
2023-03-31T09:31:59.947Z,93476.00
2023-03-31T09:32:59.972Z,93474.00
2023-03-31T09:33:59.933Z,93476.00
2023-03-31T09:35:00.195Z,93474.00
2023-03-31T09:35:59.997Z,93470.00
2023-03-31T09:37:00.027Z,93465.00
2023-03-31T09:38:00.025Z,93459.00
2023-03-31T09:38:59.987Z,93453.00
2023-03-31T09:40:00.226Z,93455.00
2023-03-31T09:40:59.992Z,93451.00
2023-03-31T09:42:00.037Z,93455.00
2023-03-31T09:43:00.096Z,93455.00
2023-03-31T09:44:00.111Z,93455.00
2023-03-31T09:45:00.168Z,93459.00
2023-03-31T09:47:00.308Z,93463.00
2023-03-31T09:48:00.236Z,93467.00
2023-03-31T09:49:00.193Z,93467.00
2023-03-31T09:50:00.320Z,93469.00
2023-03-31T09:51:00.163Z,93469.00
2023-03-31T09:52:00.175Z,93470.00
2023-03-31T09:53:00.182Z,93469.00
2023-03-31T09:54:00.166Z,93467.00
2023-03-31T09:55:00.247Z,93469.00
2023-03-31T09:56:00.161Z,93465.00
2023-03-31T09:57:00.229Z,93465.00
2023-03-31T09:58:00.198Z,93465.00
2023-03-31T09:59:00.186Z,93467.00
2023-03-31T10:00:00.195Z,93467.00
2023-03-31T10:01:00.161Z,93467.00
2023-03-31T10:02:00.404Z,93470.00
2023-03-31T10:03:00.244Z,93470.00
2023-03-31T10:04:00.191Z,93469.00
2023-03-31T10:05:00.202Z,93470.00
2023-03-31T10:06:00.050Z,93472.00
2023-03-31T10:07:00.094Z,93474.00
2023-03-31T10:08:00.123Z,93474.00
2023-03-31T10:09:00.031Z,93476.00
2023-03-31T10:10:00.265Z,93474.00
2023-03-31T10:11:00.197Z,93478.00
2023-03-31T10:12:00.137Z,93478.00
2023-03-31T10:13:00.016Z,93474.00
2023-03-31T10:14:00.013Z,93472.00
2023-03-31T10:15:00.009Z,93470.00
2023-03-31T10:16:00.008Z,93467.00
2023-03-31T10:17:00.003Z,93470.00
2023-03-31T10:18:00.000Z,93470.00
2023-03-31T10:18:59.975Z,93470.00
2023-03-31T10:19:59.973Z,93469.00
2023-03-31T10:20:59.961Z,93467.00
2023-03-31T10:21:59.964Z,93469.00
2023-03-31T10:22:59.999Z,93465.00
2023-03-31T10:24:00.070Z,93463.00
2023-03-31T10:25:00.215Z,93463.00
2023-03-31T10:26:00.168Z,93465.00
2023-03-31T10:27:00.190Z,93459.00
2023-03-31T10:28:00.230Z,93457.00
2023-03-31T10:29:00.281Z,93457.00
2023-03-31T10:30:00.538Z,93455.00
2023-03-31T10:31:00.773Z,93457.00
2023-03-31T10:32:00.628Z,93455.00
2023-03-31T10:33:08.456Z,93457.00
2023-03-31T10:34:01.663Z,93453.00
2023-03-31T10:35:00.656Z,93451.00
2023-03-31T10:36:00.732Z,93449.00
2023-03-31T10:37:00.641Z,93447.00
2023-03-31T10:38:00.634Z,93447.00
2023-03-31T10:39:00.617Z,93443.00
2023-03-31T10:40:00.651Z,93449.00
2023-03-31T10:41:00.809Z,93449.00
2023-03-31T10:42:00.597Z,93447.00
2023-03-31T10:43:00.643Z,93445.00
2023-03-31T10:44:00.683Z,93443.00
2023-03-31T10:45:00.758Z,93439.00
2023-03-31T10:46:00.828Z,93437.00
2023-03-31T10:47:00.979Z,93437.00
2023-03-31T10:48:00.965Z,93431.00
2023-03-31T10:49:01.049Z,93431.00
2023-03-31T10:50:01.046Z,93431.00
2023-03-31T10:51:01.192Z,93433.00
2023-03-31T10:52:01.118Z,93433.00
2023-03-31T10:53:01.170Z,93437.00
2023-03-31T10:54:01.199Z,93435.00
2023-03-31T10:55:01.264Z,93435.00
2023-03-31T10:56:01.713Z,93437.00
2023-03-31T10:57:01.332Z,93431.00
2023-03-31T10:58:01.354Z,93427.00
2023-03-31T10:59:05.928Z,93427.00
2023-03-31T11:00:02.402Z,93427.00
2023-03-31T11:01:01.692Z,93422.00
2023-03-31T11:02:01.437Z,93425.00
2023-03-31T11:03:01.464Z,93425.00
2023-03-31T11:04:01.469Z,93425.00
2023-03-31T11:05:01.402Z,93425.00
2023-03-31T11:06:01.708Z,93427.00
2023-03-31T11:07:01.423Z,93423.00
2023-03-31T11:08:01.438Z,93422.00
2023-03-31T11:09:01.415Z,93417.00
2023-03-31T11:10:01.429Z,93417.00
2023-03-31T11:11:01.759Z,93417.00
2023-03-31T11:12:01.531Z,93415.00
2023-03-31T11:13:01.559Z,93417.00
2023-03-31T11:14:01.579Z,93422.00
2023-03-31T11:15:01.623Z,93423.00
2023-03-31T11:16:01.658Z,93425.00
2023-03-31T11:17:01.657Z,93427.00
2023-03-31T11:18:01.699Z,93429.00
2023-03-31T11:19:01.652Z,93435.00
2023-03-31T11:20:01.681Z,93431.00
2023-03-31T11:21:01.684Z,93433.00
2023-03-31T11:22:01.670Z,93431.00
2023-03-31T11:23:01.713Z,93427.00
2023-03-31T11:24:01.681Z,93425.00
2023-03-31T11:25:01.696Z,93427.00
2023-03-31T11:26:01.692Z,93423.00
2023-03-31T11:27:01.719Z,93427.00
2023-03-31T11:28:01.727Z,93427.00
2023-03-31T11:29:01.766Z,93423.00
2023-03-31T11:30:01.766Z,93427.00
2023-03-31T11:31:01.776Z,93427.00
2023-03-31T11:32:01.877Z,93425.00
2023-03-31T11:33:01.860Z,93429.00
2023-03-31T11:34:01.843Z,93427.00
2023-03-31T11:35:01.864Z,93435.00
2023-03-31T11:36:01.931Z,93435.00
2023-03-31T11:37:01.916Z,93437.00
2023-03-31T11:38:01.951Z,93437.00
2023-03-31T11:39:01.961Z,93433.00
2023-03-31T11:40:02.018Z,93435.00
2023-03-31T11:41:02.030Z,93429.00
2023-03-31T11:42:02.105Z,93429.00
2023-03-31T11:43:02.137Z,93427.00
2023-03-31T11:44:02.168Z,93422.00
2023-03-31T11:45:02.188Z,93425.00
2023-03-31T11:46:02.323Z,93423.00